GTI6283 KDFW-KCLE
Flight info
| Callsign | GTI6283 |
|---|---|
| Flight time | N/A |
| Altitude | 35000 |
| Route | ZACHH4 BSKAT LIT J131 PXV DRUGA ROKNN4 |
| Aircraft | B77L/H-SDE1E2E3FGHIJ2J3J4J5M1RWXY/LB1D1 |
Departure
| Time | 2026-04-30 22:19 |
|---|---|
| Airport | Dallas Fort Worth International Airport (KDFW) |
Arrival
| Time | N/A |
|---|---|
| Airport | Cleveland Hopkins International Airport (KCLE) |
| Time | Latitude | Longitude | Altitude | Speed | Heading |
|---|---|---|---|---|---|
| 2026-04-30 21:31 | 32.91455 | -97.05967 | 622 ft | 0 kts | 270° |
| 2026-04-30 22:01 | 32.91455 | -97.05958 | 622 ft | 4 kts | 270° |
| 2026-04-30 22:02 | 32.91455 | -97.05926 | 622 ft | 4 kts | 270° |
| 2026-04-30 22:02 | 32.91454 | -97.05900 | 635 ft | 3 kts | 269° |
| 2026-04-30 22:02 | 32.91460 | -97.05875 | 635 ft | 4 kts | 208° |
| 2026-04-30 22:02 | 32.91483 | -97.05870 | 622 ft | 4 kts | 180° |
| 2026-04-30 22:03 | 32.91506 | -97.05870 | 633 ft | 1 kts | 180° |
| 2026-04-30 22:06 | 32.91497 | -97.05870 | 633 ft | 3 kts | 180° |
| 2026-04-30 22:06 | 32.91404 | -97.05871 | 625 ft | 9 kts | 180° |
| 2026-04-30 22:06 | 32.91342 | -97.05871 | 634 ft | 9 kts | 180° |
| 2026-04-30 22:07 | 32.91280 | -97.05871 | 628 ft | 9 kts | 180° |
| 2026-04-30 22:07 | 32.91241 | -97.05852 | 622 ft | 5 kts | 120° |
| 2026-04-30 22:07 | 32.91233 | -97.05803 | 626 ft | 7 kts | 115° |
| 2026-04-30 22:07 | 32.91186 | -97.05785 | 619 ft | 8 kts | 177° |
| 2026-04-30 22:08 | 32.91123 | -97.05784 | 624 ft | 10 kts | 180° |
| 2026-04-30 22:08 | 32.91052 | -97.05785 | 628 ft | 10 kts | 180° |
| 2026-04-30 22:08 | 32.91011 | -97.05729 | 615 ft | 12 kts | 89° |
| 2026-04-30 22:08 | 32.91015 | -97.05630 | 620 ft | 12 kts | 88° |
| 2026-04-30 22:09 | 32.91014 | -97.05531 | 618 ft | 12 kts | 90° |
| 2026-04-30 22:09 | 32.91014 | -97.05433 | 619 ft | 12 kts | 90° |
| 2026-04-30 22:09 | 32.91014 | -97.05335 | 618 ft | 12 kts | 90° |
| 2026-04-30 22:09 | 32.91014 | -97.05226 | 615 ft | 14 kts | 90° |
| 2026-04-30 22:10 | 32.91015 | -97.05109 | 615 ft | 14 kts | 89° |
| 2026-04-30 22:10 | 32.91014 | -97.04991 | 626 ft | 14 kts | 90° |
| 2026-04-30 22:10 | 32.91008 | -97.04891 | 626 ft | 7 kts | 120° |
| 2026-04-30 22:10 | 32.90956 | -97.04882 | 627 ft | 11 kts | 180° |
| 2026-04-30 22:11 | 32.90713 | -97.04882 | 615 ft | 19 kts | 180° |
| 2026-04-30 22:11 | 32.90583 | -97.04882 | 619 ft | 19 kts | 180° |
| 2026-04-30 22:11 | 32.90452 | -97.04883 | 604 ft | 19 kts | 181° |
| 2026-04-30 22:12 | 32.90322 | -97.04884 | 609 ft | 19 kts | 180° |
| 2026-04-30 22:12 | 32.90192 | -97.04884 | 613 ft | 19 kts | 180° |
| 2026-04-30 22:12 | 32.90061 | -97.04883 | 603 ft | 19 kts | 179° |
| 2026-04-30 22:12 | 32.89931 | -97.04883 | 605 ft | 19 kts | 180° |
| 2026-04-30 22:13 | 32.89800 | -97.04885 | 614 ft | 19 kts | 180° |
| 2026-04-30 22:13 | 32.89670 | -97.04887 | 613 ft | 19 kts | 180° |
| 2026-04-30 22:13 | 32.89541 | -97.04888 | 603 ft | 19 kts | 180° |
| 2026-04-30 22:13 | 32.89411 | -97.04889 | 602 ft | 19 kts | 180° |
| 2026-04-30 22:14 | 32.89279 | -97.04888 | 599 ft | 20 kts | 180° |
| 2026-04-30 22:14 | 32.89137 | -97.04889 | 596 ft | 21 kts | 180° |
| 2026-04-30 22:14 | 32.88993 | -97.04890 | 595 ft | 21 kts | 180° |
| 2026-04-30 22:14 | 32.88850 | -97.04891 | 592 ft | 21 kts | 180° |
| 2026-04-30 22:15 | 32.88705 | -97.04892 | 592 ft | 21 kts | 180° |
| 2026-04-30 22:15 | 32.88562 | -97.04893 | 594 ft | 21 kts | 180° |
| 2026-04-30 22:15 | 32.88418 | -97.04894 | 593 ft | 21 kts | 180° |
| 2026-04-30 22:15 | 32.88274 | -97.04894 | 594 ft | 21 kts | 180° |
| 2026-04-30 22:16 | 32.88130 | -97.04894 | 594 ft | 21 kts | 180° |
| 2026-04-30 22:16 | 32.88005 | -97.04896 | 591 ft | 14 kts | 180° |
| 2026-04-30 22:17 | 32.87911 | -97.05017 | 590 ft | 7 kts | 268° |
| 2026-04-30 22:17 | 32.87912 | -97.05072 | 591 ft | 3 kts | 284° |
| 2026-04-30 22:17 | 32.88057 | -97.05089 | 594 ft | 33 kts | 1° |
| 2026-04-30 22:18 | 32.88526 | -97.05088 | 593 ft | 103 kts | 0° |
| 2026-04-30 22:18 | 32.90664 | -97.05099 | 966 ft | 178 kts | 1° |
| 2026-04-30 22:19 | 32.93170 | -97.04780 | 2335 ft | 181 kts | 15° |
| 2026-04-30 22:19 | 32.94411 | -97.04496 | 2996 ft | 188 kts | 13° |
| 2026-04-30 22:19 | 32.97311 | -97.03981 | 3757 ft | 230 kts | 10° |
| 2026-04-30 22:20 | 32.98969 | -97.03731 | 4215 ft | 250 kts | 10° |
| 2026-04-30 22:20 | 33.02615 | -97.03211 | 5532 ft | 274 kts | 7° |
| 2026-04-30 22:20 | 33.04528 | -97.02942 | 6287 ft | 279 kts | 7° |
| 2026-04-30 22:21 | 33.06360 | -97.02132 | 6931 ft | 290 kts | 35° |
| 2026-04-30 22:21 | 33.07332 | -97.00977 | 7372 ft | 296 kts | 57° |
| 2026-04-30 22:21 | 33.08018 | -96.98680 | 8163 ft | 297 kts | 85° |
| 2026-04-30 22:21 | 33.08113 | -96.96235 | 8948 ft | 297 kts | 88° |
| 2026-04-30 22:22 | 33.08229 | -96.93746 | 9436 ft | 312 kts | 86° |
| 2026-04-30 22:22 | 33.08248 | -96.91136 | 10007 ft | 322 kts | 97° |
| 2026-04-30 22:22 | 33.07885 | -96.88446 | 10448 ft | 336 kts | 102° |
| 2026-04-30 22:22 | 33.07389 | -96.85649 | 10926 ft | 352 kts | 104° |
| 2026-04-30 22:23 | 33.06865 | -96.82703 | 11362 ft | 372 kts | 103° |
| 2026-04-30 22:23 | 33.06366 | -96.79609 | 11958 ft | 387 kts | 102° |
| 2026-04-30 22:23 | 33.05879 | -96.76390 | 12588 ft | 403 kts | 102° |
| 2026-04-30 22:23 | 33.05389 | -96.73023 | 13150 ft | 420 kts | 101° |
| 2026-04-30 22:24 | 33.04917 | -96.69538 | 13913 ft | 430 kts | 101° |
| 2026-04-30 22:24 | 33.04443 | -96.66027 | 14623 ft | 439 kts | 101° |
| 2026-04-30 22:24 | 33.03940 | -96.62396 | 15311 ft | 449 kts | 101° |
| 2026-04-30 22:24 | 33.03411 | -96.58637 | 16012 ft | 458 kts | 101° |
| 2026-04-30 22:25 | 33.02883 | -96.54918 | 16732 ft | 466 kts | 101° |
| 2026-04-30 22:25 | 33.02616 | -96.53038 | 17068 ft | 469 kts | 101° |
| 2026-04-30 22:26 | 33.02161 | -96.49833 | 17654 ft | 476 kts | 101° |
| 2026-04-30 22:26 | 33.01606 | -96.45918 | 18314 ft | 484 kts | 102° |
| 2026-04-30 22:26 | 33.01038 | -96.41920 | 18855 ft | 492 kts | 102° |
| 2026-04-30 22:27 | 33.00463 | -96.37889 | 19595 ft | 494 kts | 101° |
| 2026-04-30 22:27 | 33.00172 | -96.33824 | 20213 ft | 497 kts | 87° |
| 2026-04-30 22:27 | 33.02270 | -96.26027 | 21375 ft | 498 kts | 62° |
| 2026-04-30 22:28 | 33.05120 | -96.18387 | 22610 ft | 508 kts | 64° |
| 2026-04-30 22:28 | 33.06503 | -96.14498 | 23325 ft | 511 kts | 64° |
| 2026-04-30 22:29 | 33.10678 | -96.02609 | 24802 ft | 527 kts | 64° |
| 2026-04-30 22:29 | 33.12120 | -95.98505 | 25270 ft | 532 kts | 64° |
| 2026-04-30 22:30 | 33.17926 | -95.81966 | 27149 ft | 552 kts | 63° |
| 2026-04-30 22:31 | 33.22417 | -95.69087 | 28489 ft | 566 kts | 63° |
| 2026-04-30 22:32 | 33.26986 | -95.55913 | 29859 ft | 578 kts | 63° |
| 2026-04-30 22:32 | 33.30050 | -95.47036 | 30941 ft | 577 kts | 62° |
| 2026-04-30 22:33 | 33.34621 | -95.33756 | 32470 ft | 576 kts | 63° |
| 2026-04-30 22:33 | 33.37661 | -95.24904 | 33453 ft | 575 kts | 62° |
| 2026-04-30 22:34 | 33.42197 | -95.11647 | 34803 ft | 572 kts | 63° |
| 2026-04-30 22:35 | 33.45218 | -95.02791 | 35000 ft | 577 kts | 63° |
| 2026-04-30 22:36 | 33.51258 | -94.84999 | 35833 ft | 575 kts | 63° |
| 2026-04-30 22:36 | 33.52757 | -94.80562 | 36317 ft | 572 kts | 63° |
| 2026-04-30 22:37 | 33.57220 | -94.67337 | 36992 ft | 573 kts | 62° |
| 2026-04-30 22:37 | 33.58711 | -94.62908 | 37004 ft | 572 kts | 63° |
| 2026-04-30 22:38 | 33.64600 | -94.45340 | 37006 ft | 569 kts | 62° |
| 2026-04-30 22:39 | 33.69014 | -94.32110 | 37003 ft | 570 kts | 62° |
| 2026-04-30 22:40 | 33.79850 | -94.07083 | 37010 ft | 559 kts | 51° |
| 2026-04-30 22:41 | 33.89656 | -93.86759 | 37062 ft | 562 kts | 53° |
| 2026-04-30 22:43 | 34.01244 | -93.62271 | 37014 ft | 561 kts | 52° |
| 2026-04-30 22:44 | 34.09352 | -93.46354 | 37040 ft | 552 kts | 46° |
| 2026-04-30 22:45 | 34.22328 | -93.23307 | 37049 ft | 555 kts | 47° |
| 2026-04-30 22:47 | 34.35131 | -92.99966 | 37048 ft | 556 kts | 47° |
| 2026-04-30 22:48 | 34.43663 | -92.84355 | 37053 ft | 556 kts | 47° |
| 2026-04-30 22:49 | 34.56428 | -92.60862 | 37049 ft | 555 kts | 47° |
| 2026-04-30 22:51 | 34.69101 | -92.37388 | 37052 ft | 553 kts | 47° |
| 2026-04-30 22:52 | 34.75420 | -92.25624 | 37051 ft | 554 kts | 47° |
| 2026-04-30 22:53 | 34.84267 | -92.10474 | 37073 ft | 539 kts | 38° |
| 2026-04-30 22:53 | 34.91781 | -92.00322 | 37062 ft | 538 kts | 37° |
| 2026-04-30 22:55 | 35.04205 | -91.83273 | 37086 ft | 540 kts | 38° |
| 2026-04-30 22:56 | 35.14132 | -91.69497 | 37088 ft | 540 kts | 38° |
| 2026-04-30 22:57 | 35.26533 | -91.52234 | 37098 ft | 541 kts | 38° |
| 2026-04-30 22:58 | 35.36472 | -91.38334 | 37105 ft | 543 kts | 38° |
| 2026-04-30 22:59 | 35.51355 | -91.17411 | 37146 ft | 544 kts | 38° |